Terminal Aerodrome Forecast
Issued by NWS Buffalo, NY

Home | Current Version | Previous Version | Text Only | Print | Product List | Glossary On
Versions: 1 2 3 4 5 6 7 8 9 10 11 12 13 14 15 16 17 18 19 20 21 22 23 24 25 26
000
FTUS41 KBUF 312153 AAA
TAFART
TAF AMD
KART 312153Z 3122/0118 23008KT P6SM SKC
     FM010000 21006KT P6SM BKN060
     FM010200 21006KT P6SM VCSH BKN040
     FM010800 22005KT P6SM SCT050
     FM011400 23011KT P6SM SCT050
     FM011600 24014G20KT P6SM SCT050=

USA.gov is the U.S. government's official web portal to all federal, state and local government web resources and services.